Holt, MI (48842)

7:03 AM EST on January 30, 2015 (GMT -0500)
Green #4 Consolidated Drain Drainage District | Change Station
CLOSE
Current Station
Personal Weather Station
Location: Delhi Charter Township, MI
Elevation: 892 ft
Nearby Weather Stations

Elev 892 ft 42.64 °N, 84.52 °W | Updated 0 second ago

Partly Cloudy
Partly Cloudy
17.7 °F
Feels Like 8 °F
N
6.8
Wind Variable Wind from WNW
Gusts 14.0 mph

Today
High -- | Low -- °F
--% Chance of Precip.
Yesterday
High -- | Low -- °F
Precip. -- in
7:54 AM 5:48 PM
Waxing Gibbous, 82% visible
Pressure 30.34 in
Visibility 10.0 miles
Clouds Overcast 3400 ft
Windchill 8 °F
Dew Point 11 °F
Humidity 70%
Rainfall 0.00 in
Snow Depth Not available.
UV 0 out of 12
Pollen .10 out of 12
Air Quality Not available.
Flu Activity Not available.
METAR KTEW 301154Z AUTO 34014G20KT 10SM OVC034 M08/M13 A3034 RMK AO2 T10811132

More Conditions Fewer Conditions

Pressure 30.34 in
Visibility 10.0 miles
Clouds Overcast 3400 ft
Windchill 8 °F
Dew Point 11 °F
Humidity 70%
Rainfall 0.00 in
Snow Depth Not available.
UV 0 out of 12
Pollen .10 out of 12
Air Quality Not available.
Flu Activity Not available.
METAR KTEW 301154Z AUTO 34014G20KT 10SM OVC034 M08/M13 A3034 RMK AO2 T10811132

More Conditions Fewer Conditions

10-Day Weather Forecast

Almanac

Astronomy

Jan. 30, 2015 Rise Set
Actual Time
Civil Twilight
Nautical Twilight
Astronomical Twilight
Moon
Length of Visible Light
Length of Day
Tomorrow will be .
, % of the Moon is Illuminated

Today's Extremes

State Highs State Lows

Community

WunderPhotos

Upload Photos

1,791,738 photos uploaded!

WunderBlogs® & News

Nearby

Air Quality

  Air Quality AQ Index Pollutant
Not available.

Snow Depth

Station Depth Elevation

Earthquake Activity

City Distance Mag. Time & Date
Minimum magnitude displayed is 2.5.

Coastal Water Temperatures

Place Temperature

Nearby Weather Stations